Time;durP1;ratioP1;P1;durP2;ratioP2;P2;SDS_P1;SDS_P2;PMS_P1;PMS_P2;Temp;Humidity;BMP_temperature;BMP_pressure;BME280_temperature;BME280_humidity;BME280_pressure;Samples;Min_cycle;Max_cycle;Signal;HPM_P1;HPM_P2
2023/07/14 00:00:39;;;;;;;5.57;5.07;;;14.10;99.90;;;;;;5097486;28;20834;-61
2023/07/14 00:03:08;;;;;;;7.03;5.63;;;14.10;99.90;;;;;;5097705;28;20443;-62
2023/07/14 00:05:36;;;;;;;6.03;5.43;;;14.10;99.90;;;;;;5098018;28;20460;-61
2023/07/14 00:08:05;;;;;;;5.57;5.07;;;14.00;1.00;;;;;;5097926;28;20721;-62
2023/07/14 00:10:35;;;;;;;5.57;5.07;;;14.00;1.00;;;;;;5097608;28;20928;-61
2023/07/14 00:13:07;;;;;;;5.97;5.37;;;13.90;30.50;;;;;;5097804;28;20551;-61
2023/07/14 00:15:39;;;;;;;5.60;5.07;;;13.80;99.90;;;;;;5097332;28;20471;-62
2023/07/14 00:18:17;;;;;;;4.90;4.50;;;13.80;1.00;;;;;;5097286;28;20499;-61
2023/07/14 00:20:44;;;;;;;6.83;4.67;;;13.80;86.40;;;;;;5097569;28;20435;-62
2023/07/14 00:23:12;;;;;;;6.67;5.57;;;13.80;99.90;;;;;;5097465;28;20435;-62
2023/07/14 00:25:42;;;;;;;5.70;5.20;;;13.90;99.90;;;;;;5097082;28;20467;-62
2023/07/14 00:28:16;;;;;;;5.60;5.10;;;14.00;1.00;;;;;;5097017;28;20460;-62
2023/07/14 00:30:43;;;;;;;6.63;5.77;;;14.00;99.90;;;;;;5096885;28;20940;-62
2023/07/14 00:33:13;;;;;;;6.87;5.70;;;14.10;99.90;;;;;;5097755;28;20458;-61
2023/07/14 00:35:41;;;;;;;5.80;5.20;;;14.20;99.90;;;;;;5096782;28;20479;-61
2023/07/14 00:38:09;;;;;;;5.40;4.87;;;14.20;1.00;;;;;;5097118;28;20517;-62
2023/07/14 00:40:38;;;;;;;6.33;5.73;;;14.20;99.90;;;;;;5097344;28;20457;-62
2023/07/14 00:43:13;;;;;;;8.13;5.20;;;14.20;99.90;;;;;;5097253;28;20488;-61
2023/07/14 00:45:40;;;;;;;7.20;5.30;;;14.20;99.90;;;;;;5096865;28;20743;-62
2023/07/14 00:48:12;;;;;;;6.90;5.30;;;14.30;99.90;;;;;;5097144;28;20460;-62
2023/07/14 00:50:43;;;;;;;8.10;5.70;;;14.20;99.90;;;;;;5097163;28;20492;-62
2023/07/14 00:53:15;;;;;;;6.13;5.50;;;14.20;99.90;;;;;;5097255;28;20460;-62
2023/07/14 00:55:46;;;;;;;6.83;6.00;;;14.30;99.90;;;;;;5096650;28;20464;-62
2023/07/14 00:58:18;;;;;;;7.17;5.57;;;14.30;99.90;;;;;;5097137;28;20487;-62
2023/07/14 01:01:03;;;;;;;7.10;5.80;;;14.20;1.00;;;;;;5097206;28;20431;-62
2023/07/14 01:03:31;;;;;;;6.23;5.27;;;14.30;1.00;;;;;;5101343;28;20468;-61
2023/07/14 01:06:00;;;;;;;6.50;5.80;;;14.40;99.90;;;;;;5101115;28;20468;-61
2023/07/14 01:08:28;;;;;;;5.43;4.93;;;14.40;99.90;;;;;;5100885;28;20898;-61
2023/07/14 01:10:56;;;;;;;12.30;6.13;;;14.50;1.00;;;;;;5101505;28;20470;-62
2023/07/14 01:13:26;;;;;;;8.50;5.77;;;14.50;99.90;;;;;;5100950;28;20513;-61
2023/07/14 01:15:53;;;;;;;6.00;5.00;;;14.40;99.90;;;;;;5100703;28;20888;-61
2023/07/14 01:18:21;;;;;;;5.33;4.83;;;14.40;99.90;;;;;;5100738;28;20746;-62
2023/07/14 01:20:48;;;;;;;4.90;4.40;;;14.40;99.90;;;;;;5100902;28;20452;-61
2023/07/14 01:23:31;;;;;;;5.33;4.83;;;14.50;99.90;;;;;;5101093;28;20466;-62
2023/07/14 01:26:11;;;;;;;5.87;4.70;;;14.40;1.00;;;;;;5100541;28;20468;-61
2023/07/14 01:28:40;;;;;;;8.20;5.80;;;14.40;1.00;;;;;;5100494;28;20474;-62
2023/07/14 01:31:12;;;;;;;5.87;5.27;;;14.50;1.00;;;;;;5100865;28;20491;-62
2023/07/14 01:33:39;;;;;;;8.40;5.00;;;14.50;1.00;;;;;;5100554;28;20757;-61
2023/07/14 01:36:06;;;;;;;6.77;4.93;;;14.30;1.00;;;;;;5100205;28;20464;-61
2023/07/14 01:38:34;;;;;;;6.50;5.10;;;14.30;50.40;;;;;;5100348;28;20438;-61
2023/07/14 01:41:03;;;;;;;6.30;5.13;;;14.40;99.90;;;;;;5100432;28;20456;-61
2023/07/14 01:43:31;;;;;;;6.23;4.97;;;14.40;99.90;;;;;;5100301;28;20491;-62
2023/07/14 01:46:06;;;;;;;5.10;4.60;;;14.40;99.90;;;;;;5100242;28;20456;-61
2023/07/14 01:48:36;;;;;;;5.00;4.50;;;14.40;99.90;;;;;;5100635;28;20487;-61
2023/07/14 01:51:06;;;;;;;6.13;5.27;;;14.50;99.90;;;;;;5100188;28;20491;-61
2023/07/14 01:53:42;;;;;;;5.80;5.07;;;14.40;99.90;;;;;;5099703;28;20460;-61
2023/07/14 01:56:12;;;;;;;5.50;4.53;;;14.30;99.90;;;;;;5100076;28;20482;-61
2023/07/14 01:58:49;;;;;;;6.10;5.33;;;14.30;99.90;;;;;;5100146;28;20460;-61
2023/07/14 02:01:21;;;;;;;6.97;5.70;;;14.40;79.90;;;;;;5100345;28;20433;-62
2023/07/14 02:03:52;;;;;;;7.40;5.40;;;14.40;2.90;;;;;;5099991;28;20467;-62
2023/07/14 02:06:19;;;;;;;7.17;5.27;;;14.20;73.90;;;;;;5099959;28;20460;-62
2023/07/14 02:08:46;;;;;;;6.13;4.63;;;14.30;99.90;;;;;;5099836;28;20563;-62
2023/07/14 02:11:17;;;;;;;5.33;4.83;;;14.20;99.90;;;;;;5100017;28;20496;-62
2023/07/14 02:13:45;;;;;;;7.70;4.57;;;14.20;99.90;;;;;;5098011;28;20461;-62
2023/07/14 02:16:15;;;;;;;7.30;5.17;;;14.10;99.90;;;;;;5099873;28;20439;-62
2023/07/14 02:18:45;;;;;;;6.30;5.00;;;14.10;99.90;;;;;;5085076;28;20467;-61
2023/07/14 02:21:15;;;;;;;4.87;4.37;;;14.10;99.90;;;;;;5079314;28;20449;-62
2023/07/14 02:23:43;;;;;;;8.73;5.33;;;14.20;99.90;;;;;;5079362;28;20440;-61
2023/07/14 02:26:18;;;;;;;7.13;4.80;;;14.20;99.90;;;;;;5079186;28;20886;-61
2023/07/14 02:28:46;;;;;;;6.07;4.93;;;14.30;99.90;;;;;;5079515;28;20452;-62
2023/07/14 02:31:20;;;;;;;5.37;4.63;;;14.30;99.90;;;;;;5079428;28;20806;-62
2023/07/14 02:33:50;;;;;;;7.30;5.33;;;14.30;99.90;;;;;;5078683;28;20462;-61
2023/07/14 02:36:25;;;;;;;5.47;4.83;;;14.30;99.90;;;;;;5079218;28;20901;-61
2023/07/14 02:38:55;;;;;;;6.63;5.07;;;14.30;1.00;;;;;;5078667;28;20783;-61
2023/07/14 02:41:25;;;;;;;6.23;5.63;;;14.40;1.00;;;;;;5079131;28;20441;-62
2023/07/14 02:43:55;;;;;;;6.10;4.90;;;14.50;1.00;;;;;;5079107;28;20457;-62
2023/07/14 02:46:28;;;;;;;6.20;5.60;;;14.50;1.00;;;;;;5078937;28;20457;-62
2023/07/14 02:48:57;;;;;;;5.53;4.33;;;14.60;99.90;;;;;;5078852;28;20457;-62
2023/07/14 02:51:24;;;;;;;5.90;4.20;;;14.60;99.90;;;;;;5079033;28;20496;-62
2023/07/14 02:53:51;;;;;;;5.17;4.67;;;14.70;99.90;;;;;;5078160;28;20466;-61
2023/07/14 02:56:19;;;;;;;5.87;4.40;;;14.70;53.60;;;;;;5078626;28;20461;-62
2023/07/14 02:58:49;;;;;;;7.53;6.00;;;14.70;1.00;;;;;;5078874;28;20465;-62
2023/07/14 03:01:17;;;;;;;5.83;5.23;;;14.70;1.00;;;;;;5078564;28;20442;-61
2023/07/14 03:03:45;;;;;;;7.73;5.50;;;14.60;1.00;;;;;;5078779;28;20439;-62
2023/07/14 03:06:16;;;;;;;5.37;4.87;;;14.60;1.00;;;;;;5078576;28;20808;-62
2023/07/14 03:08:44;;;;;;;7.03;4.83;;;14.50;1.00;;;;;;5078442;28;20925;-62
2023/07/14 03:11:12;;;;;;;7.90;4.80;;;14.50;1.00;;;;;;5078559;28;20468;-62
2023/07/14 03:13:39;;;;;;;5.63;4.70;;;14.50;1.00;;;;;;5078461;28;20784;-62
2023/07/14 03:16:06;;;;;;;8.97;5.60;;;14.40;1.00;;;;;;5078060;28;20470;-62
2023/07/14 03:18:33;;;;;;;5.97;4.40;;;14.20;1.00;;;;;;5078115;28;20515;-61
2023/07/14 03:21:03;;;;;;;8.90;5.70;;;14.20;99.90;;;;;;5078429;28;20522;-62
2023/07/14 03:23:32;;;;;;;8.60;5.50;;;14.20;99.90;;;;;;5078071;28;20522;-62
2023/07/14 03:26:02;;;;;;;7.50;5.20;;;14.20;99.90;;;;;;5077945;28;20458;-62
2023/07/14 03:28:29;;;;;;;6.10;5.60;;;14.20;99.90;;;;;;5078136;28;20857;-62
2023/07/14 03:30:56;;;;;;;9.27;5.50;;;14.20;99.90;;;;;;5078193;28;20744;-62
2023/07/14 03:33:24;;;;;;;6.33;5.53;;;14.20;99.90;;;;;;5077819;28;20957;-62
2023/07/14 03:35:51;;;;;;;8.83;5.70;;;14.20;99.90;;;;;;5077746;28;20465;-62
2023/07/14 03:38:19;;;;;;;7.30;5.80;;;14.10;63.30;;;;;;5077929;28;20466;-62
2023/07/14 03:40:47;;;;;;;9.67;5.50;;;14.00;99.90;;;;;;5077535;28;20846;-62
2023/07/14 03:43:14;;;;;;;6.47;5.30;;;14.00;99.90;;;;;;5077685;28;20478;-62
2023/07/14 03:45:42;;;;;;;5.60;5.00;;;14.00;99.90;;;;;;5077335;28;20484;-62
2023/07/14 03:48:09;;;;;;;7.00;5.97;;;14.00;99.90;;;;;;5076956;28;20457;-62
2023/07/14 03:50:37;;;;;;;7.97;5.60;;;13.90;99.90;;;;;;5077359;28;20749;-62
2023/07/14 03:53:04;;;;;;;6.70;5.27;;;13.90;1.00;;;;;;5077552;28;20497;-62
2023/07/14 03:55:33;;;;;;;6.80;5.30;;;13.90;1.00;;;;;;5077870;28;20871;-62
2023/07/14 03:58:01;;;;;;;6.67;5.97;;;14.00;1.00;;;;;;5077445;28;20462;-62
2023/07/14 04:00:30;;;;;;;5.53;5.03;;;14.10;1.00;;;;;;5077628;28;20432;-62
2023/07/14 04:02:57;;;;;;;7.10;6.07;;;14.10;1.00;;;;;;5077544;28;20508;-62
2023/07/14 04:05:25;;;;;;;6.73;5.63;;;14.10;1.00;;;;;;5077974;28;20457;-62
2023/07/14 04:07:52;;;;;;;6.00;5.40;;;14.20;1.00;;;;;;5077024;28;20466;-61
2023/07/14 04:10:20;;;;;;;6.37;5.70;;;14.30;1.00;;;;;;5077594;28;20878;-62
2023/07/14 04:12:49;;;;;;;8.13;5.43;;;14.30;1.00;;;;;;5077272;28;20492;-62
2023/07/14 04:15:19;;;;;;;5.43;4.83;;;14.30;1.00;;;;;;5077286;28;20959;-62
2023/07/14 04:17:47;;;;;;;6.63;5.40;;;14.30;1.00;;;;;;5077045;28;20472;-61
2023/07/14 04:20:14;;;;;;;7.53;4.80;;;14.40;99.90;;;;;;5077110;28;20773;-62
2023/07/14 04:22:42;;;;;;;5.77;5.17;;;14.40;99.90;;;;;;5077153;28;20454;-62
2023/07/14 04:25:09;;;;;;;7.23;5.43;;;14.50;99.90;;;;;;5077545;28;20775;-62
2023/07/14 04:27:37;;;;;;;6.70;5.10;;;14.50;99.90;;;;;;5076607;28;20519;-62
2023/07/14 04:30:07;;;;;;;7.00;5.60;;;14.50;99.90;;;;;;5076914;28;20545;-62
2023/07/14 04:32:36;;;;;;;5.80;5.30;;;14.50;99.90;;;;;;5077028;28;20782;-61
2023/07/14 04:35:06;;;;;;;7.17;4.70;;;14.60;99.90;;;;;;5077173;28;20866;-62
2023/07/14 04:37:33;;;;;;;5.90;4.13;;;14.60;99.90;;;;;;5076724;28;20457;-62
2023/07/14 04:40:00;;;;;;;5.10;4.60;;;14.70;99.90;;;;;;5076940;28;20461;-62
2023/07/14 04:42:27;;;;;;;6.37;4.63;;;14.70;99.90;;;;;;5076900;28;20930;-62
2023/07/14 04:44:54;;;;;;;5.87;5.20;;;14.80;99.80;;;;;;5076961;28;20432;-61
2023/07/14 04:47:22;;;;;;;7.23;5.57;;;14.80;30.00;;;;;;5076456;28;20436;-61
2023/07/14 04:49:50;;;;;;;5.93;5.03;;;14.80;1.00;;;;;;5077110;28;20462;-62
2023/07/14 04:52:18;;;;;;;6.60;5.10;;;14.80;1.00;;;;;;5076873;28;20539;-62
2023/07/14 04:54:45;;;;;;;7.20;4.13;;;14.90;1.00;;;;;;5077311;28;20447;-62
2023/07/14 04:57:12;;;;;;;6.23;4.87;;;14.90;1.00;;;;;;5076823;28;20461;-62
2023/07/14 04:59:40;;;;;;;6.80;4.70;;;15.00;1.00;;;;;;5076902;28;20462;-61
2023/07/14 05:02:08;;;;;;;5.90;4.50;;;15.10;1.00;;;;;;5076967;28;20462;-62
2023/07/14 05:04:40;;;;;;;8.27;4.97;;;15.10;1.00;;;;;;5076763;28;20487;-62
2023/07/14 05:07:08;;;;;;;8.23;4.90;;;15.30;99.90;;;;;;5076938;28;20447;-62
2023/07/14 05:09:35;;;;;;;7.10;4.23;;;15.20;99.90;;;;;;5076264;28;20457;-62
2023/07/14 05:12:03;;;;;;;6.97;5.03;;;15.30;99.90;;;;;;5076713;28;20485;-62
2023/07/14 05:14:30;;;;;;;8.93;5.40;;;15.40;99.90;;;;;;5076386;28;20518;-62
2023/07/14 05:16:57;;;;;;;6.63;5.17;;;15.60;99.90;;;;;;5076380;28;20778;-62
2023/07/14 05:19:24;;;;;;;8.80;4.80;;;15.70;99.90;;;;;;5077059;28;20466;-61
2023/07/14 05:21:53;;;;;;;5.97;4.80;;;15.70;99.90;;;;;;5076564;28;20465;-62
2023/07/14 05:24:22;;;;;;;9.90;5.33;;;15.80;99.90;;;;;;5076835;28;20889;-61
2023/07/14 05:26:49;;;;;;;9.10;4.57;;;15.90;99.90;;;;;;5076608;28;20761;-62
2023/07/14 05:29:16;;;;;;;6.70;4.70;;;15.90;99.90;;;;;;5076981;28;20530;-61
2023/07/14 05:31:43;;;;;;;10.23;5.60;;;16.00;99.90;;;;;;5076454;28;20436;-61
2023/07/14 05:34:11;;;;;;;6.00;5.40;;;16.10;30.70;;;;;;5076346;28;20746;-61
2023/07/14 05:36:38;;;;;;;7.80;5.20;;;16.20;72.90;;;;;;5076487;28;20490;-62
2023/07/14 05:39:05;;;;;;;8.50;4.80;;;16.20;34.00;;;;;;5076692;28;20468;-61
2023/07/14 05:41:34;;;;;;;8.17;5.20;;;16.30;1.00;;;;;;5076421;28;20949;-62
2023/07/14 05:44:03;;;;;;;9.73;4.80;;;16.30;1.00;;;;;;5076075;28;20467;-61
2023/07/14 05:46:30;;;;;;;6.07;5.00;;;16.40;1.00;;;;;;5076455;28;20462;-61
2023/07/14 05:48:57;;;;;;;6.00;4.53;;;16.50;1.00;;;;;;5079450;28;20465;-61
2023/07/14 05:51:24;;;;;;;5.33;3.67;;;16.50;1.00;;;;;;5080306;28;20465;-61
2023/07/14 05:53:51;;;;;;;7.33;4.90;;;16.60;1.00;;;;;;5079985;28;20528;-60
2023/07/14 05:56:18;;;;;;;5.53;4.83;;;16.70;1.00;;;;;;5079616;28;20461;-60
2023/07/14 05:58:47;;;;;;;5.50;4.20;;;16.80;1.00;;;;;;5080130;28;20465;-61
2023/07/14 06:01:14;;;;;;;8.97;4.87;;;16.90;1.00;;;;;;5079829;28;20440;-60
2023/07/14 06:03:41;;;;;;;4.93;3.40;;;17.00;1.00;;;;;;5095922;28;20787;-60
2023/07/14 06:06:09;;;;;;;6.00;5.10;;;17.10;1.00;;;;;;5098736;28;20467;-60
2023/07/14 06:08:36;;;;;;;10.30;5.40;;;17.10;1.00;;;;;;5098690;28;20513;-59
2023/07/14 06:11:04;;;;;;;7.37;4.87;;;17.30;1.00;;;;;;5099626;28;20461;-61
2023/07/14 06:13:31;;;;;;;7.00;4.57;;;17.40;1.00;;;;;;5099809;28;20778;-60
2023/07/14 06:16:00;;;;;;;5.10;3.73;;;17.50;1.00;;;;;;5098014;28;20514;-60
2023/07/14 06:18:27;;;;;;;7.00;4.43;;;17.70;1.00;;;;;;5098360;28;20551;-60
2023/07/14 06:20:55;;;;;;;6.50;4.83;;;17.90;1.00;;;;;;5099706;28;20460;-60
2023/07/14 06:23:22;;;;;;;6.90;4.30;;;18.10;1.00;;;;;;5099968;28;20460;-60
2023/07/14 06:25:49;;;;;;;6.03;4.67;;;18.30;1.00;;;;;;5099275;28;20469;-60
2023/07/14 06:28:16;;;;;;;4.33;3.90;;;18.60;1.00;;;;;;5099445;28;20881;-60
2023/07/14 06:30:43;;;;;;;6.80;4.47;;;18.80;1.00;;;;;;5099507;28;20471;-60
2023/07/14 06:33:12;;;;;;;4.77;4.20;;;19.10;1.00;;;;;;5099387;28;20955;-60
2023/07/14 06:35:40;;;;;;;5.80;4.03;;;19.20;1.00;;;;;;5099190;28;20467;-60
2023/07/14 06:38:07;;;;;;;5.90;4.27;;;19.60;1.00;;;;;;5098985;28;20467;-60
2023/07/14 06:40:34;;;;;;;4.70;3.63;;;19.90;99.90;;;;;;5099219;28;20742;-60
2023/07/14 06:43:02;;;;;;;5.00;3.87;;;20.10;99.90;;;;;;5099142;28;20488;-60
2023/07/14 06:45:29;;;;;;;6.10;4.77;;;20.30;99.90;;;;;;5099337;28;20464;-59
2023/07/14 06:47:56;;;;;;;5.93;3.83;;;20.50;99.90;;;;;;5098816;28;20461;-60
2023/07/14 06:50:25;;;;;;;6.00;3.97;;;20.60;99.90;;;;;;5099395;28;20892;-60
2023/07/14 06:52:53;;;;;;;7.57;4.27;;;20.70;99.90;;;;;;5098739;28;20488;-60
2023/07/14 06:55:20;;;;;;;8.43;4.40;;;20.80;99.90;;;;;;5099036;28;20887;-60
2023/07/14 06:57:47;;;;;;;6.33;3.57;;;20.90;99.90;;;;;;5098578;28;20496;-60
2023/07/14 07:00:15;;;;;;;4.80;3.80;;;21.10;99.90;;;;;;5098439;28;20483;-61
2023/07/14 07:02:42;;;;;;;6.80;4.47;;;21.20;99.90;;;;;;5098905;28;20460;-60
2023/07/14 07:05:10;;;;;;;6.13;4.00;;;21.30;99.90;;;;;;5098726;28;20551;-59
2023/07/14 07:07:39;;;;;;;5.43;3.47;;;21.60;99.90;;;;;;5098175;28;20464;-61
2023/07/14 07:10:07;;;;;;;5.50;4.10;;;21.70;99.90;;;;;;5096988;28;20560;-60
2023/07/14 07:12:34;;;;;;;10.30;4.23;;;21.70;99.90;;;;;;5098765;28;20793;-61
2023/07/14 07:15:02;;;;;;;4.10;3.30;;;21.90;99.90;;;;;;5098126;28;20464;-61
2023/07/14 07:17:29;;;;;;;6.53;3.93;;;22.00;99.90;;;;;;5098974;28;20743;-61
2023/07/14 07:19:57;;;;;;;7.10;4.80;;;22.10;99.90;;;;;;5098450;28;20471;-61
2023/07/14 07:22:24;;;;;;;5.47;3.50;;;22.20;99.90;;;;;;5098677;28;20577;-60
2023/07/14 07:24:52;;;;;;;5.40;3.20;;;22.50;99.90;;;;;;5098603;28;20439;-61
2023/07/14 07:27:20;;;;;;;4.97;3.50;;;22.80;99.90;;;;;;5098660;28;20558;-61
2023/07/14 07:29:47;;;;;;;7.50;3.70;;;22.80;99.90;;;;;;5098270;28;20457;-60
2023/07/14 07:32:14;;;;;;;5.63;3.50;;;22.90;99.90;;;;;;5098216;28;20460;-61
2023/07/14 07:34:41;;;;;;;5.07;3.37;;;22.90;99.90;;;;;;5098387;28;20491;-60
2023/07/14 07:37:10;;;;;;;7.67;3.40;;;23.00;99.90;;;;;;5098529;28;20456;-61
2023/07/14 07:39:37;;;;;;;5.17;3.27;;;23.30;99.90;;;;;;5098091;28;20507;-61
2023/07/14 07:42:08;;;;;;;4.30;3.40;;;23.40;99.90;;;;;;5097354;28;20497;-61
2023/07/14 07:44:36;;;;;;;3.50;3.00;;;23.30;99.90;;;;;;5097820;28;20542;-61
2023/07/14 07:47:03;;;;;;;4.73;3.33;;;23.30;99.90;;;;;;5097475;28;20461;-61
2023/07/14 07:49:30;;;;;;;3.40;3.10;;;23.30;99.90;;;;;;5097693;28;20543;-61
2023/07/14 07:51:57;;;;;;;7.17;4.03;;;23.30;99.90;;;;;;5097486;28;20558;-61
2023/07/14 07:54:26;;;;;;;4.07;3.10;;;23.40;99.90;;;;;;5097857;28;20503;-60
2023/07/14 07:56:53;;;;;;;3.80;2.83;;;23.60;99.90;;;;;;5098131;28;20467;-60
2023/07/14 07:59:21;;;;;;;4.57;3.33;;;23.70;99.90;;;;;;5097880;28;20466;-61
2023/07/14 08:01:49;;;;;;;5.40;3.20;;;23.90;99.90;;;;;;5097688;28;20464;-60
2023/07/14 08:04:18;;;;;;;6.17;3.77;;;24.00;99.90;;;;;;5097605;28;20482;-61
2023/07/14 08:06:46;;;;;;;5.37;4.20;;;23.80;99.90;;;;;;5097630;28;20464;-61
2023/07/14 08:09:13;;;;;;;4.93;3.40;;;23.80;99.90;;;;;;5097995;28;20483;-61
2023/07/14 08:11:40;;;;;;;4.50;3.80;;;23.70;99.90;;;;;;5096426;28;20508;-62
2023/07/14 08:14:11;;;;;;;4.50;3.10;;;23.70;99.90;;;;;;5097334;28;20598;-62
2023/07/14 08:16:39;;;;;;;5.37;4.10;;;23.70;99.90;;;;;;5097196;28;20493;-60
2023/07/14 08:19:07;;;;;;;6.40;3.50;;;23.90;99.90;;;;;;5097669;28;20888;-60
2023/07/14 08:21:35;;;;;;;4.73;2.90;;;24.40;99.90;;;;;;5097831;28;20463;-60
2023/07/14 08:24:03;;;;;;;3.60;3.30;;;24.70;99.90;;;;;;5097107;28;20743;-61
2023/07/14 08:26:31;;;;;;;4.13;3.50;;;25.00;99.90;;;;;;5097545;28;20463;-60
2023/07/14 08:28:59;;;;;;;4.83;3.57;;;25.30;99.90;;;;;;5097526;28;20946;-61
2023/07/14 08:31:26;;;;;;;4.10;3.70;;;25.40;99.90;;;;;;5097928;28;20467;-61
2023/07/14 08:33:55;;;;;;;4.17;3.70;;;25.70;99.90;;;;;;5097206;28;20571;-61
2023/07/14 08:36:22;;;;;;;3.77;3.10;;;25.60;99.90;;;;;;5096975;28;20952;-61
2023/07/14 08:38:49;;;;;;;3.90;3.50;;;25.60;99.90;;;;;;5097494;28;20460;-62
2023/07/14 08:41:28;;;;;;;8.40;3.73;;;25.30;99.90;;;;;;5097146;28;20465;-61
2023/07/14 08:44:17;;;;;;;4.97;3.67;;;25.50;99.90;;;;;;5097261;28;20452;-61
2023/07/14 08:46:58;;;;;;;3.83;3.43;;;25.50;99.90;;;;;;5097263;28;20551;-61
2023/07/14 08:49:30;;;;;;;7.10;3.67;;;25.50;99.90;;;;;;5097895;28;20476;-61
2023/07/14 08:52:01;;;;;;;6.57;3.97;;;25.80;99.90;;;;;;5097068;28;20460;-61
2023/07/14 08:54:34;;;;;;;4.20;3.60;;;26.10;99.90;;;;;;5097614;28;20488;-60
2023/07/14 08:57:02;;;;;;;4.83;3.67;;;26.20;99.90;;;;;;5097242;28;20567;-61
2023/07/14 08:59:35;;;;;;;2.93;2.63;;;26.70;99.90;;;;;;5097487;28;20559;-61
2023/07/14 09:02:13;;;;;;;5.70;3.83;;;27.00;99.90;;;;;;5096812;28;20551;-62
2023/07/14 09:04:46;;;;;;;4.17;3.27;;;26.90;99.90;;;;;;5097086;28;20456;-62
2023/07/14 09:07:17;;;;;;;4.07;3.67;;;26.40;99.90;;;;;;5097209;28;20898;-62
2023/07/14 09:09:45;;;;;;;3.13;2.83;;;26.10;99.90;;;;;;5097071;28;20954;-62
2023/07/14 09:12:23;;;;;;;3.40;3.10;;;25.70;99.90;;;;;;5096958;28;20488;-61
2023/07/14 09:15:00;;;;;;;4.47;3.57;;;25.60;99.90;;;;;;5097047;28;20917;-62
2023/07/14 09:17:45;;;;;;;4.57;3.20;;;25.90;99.90;;;;;;5097028;28;20467;-61
2023/07/14 09:20:40;;;;;;;3.60;3.30;;;26.40;99.90;;;;;;5097012;28;20460;-61
2023/07/14 09:23:26;;;;;;;3.13;2.93;;;26.80;99.90;;;;;;5098056;28;20773;-62
2023/07/14 09:25:59;;;;;;;3.50;3.10;;;26.80;99.90;;;;;;5100345;28;20514;-64
2023/07/14 09:28:33;;;;;;;3.93;3.33;;;26.50;99.90;;;;;;5099937;28;20587;-62
2023/07/14 09:31:05;;;;;;;3.90;3.40;;;26.40;99.90;;;;;;5099453;28;20459;-63
2023/07/14 09:33:47;;;;;;;4.80;3.40;;;26.50;99.90;;;;;;5100571;28;20537;-62
2023/07/14 09:36:17;;;;;;;3.60;3.20;;;26.30;99.90;;;;;;5100449;28;20499;-63
2023/07/14 09:38:49;;;;;;;5.63;3.47;;;26.10;99.90;;;;;;5100221;28;20491;-63
2023/07/14 09:41:17;;;;;;;4.33;3.93;;;26.10;99.90;;;;;;5100639;28;20456;-62
2023/07/14 09:43:45;;;;;;;3.97;3.57;;;26.10;99.90;;;;;;5100468;28;20463;-62
2023/07/14 09:46:17;;;;;;;3.33;3.07;;;26.40;99.90;;;;;;5100536;28;20467;-62
2023/07/14 09:48:48;;;;;;;4.77;4.23;;;26.40;99.90;;;;;;5099983;28;20464;-61
2023/07/14 09:51:20;;;;;;;6.40;3.97;;;26.80;99.90;;;;;;5100684;28;20900;-61
2023/07/14 09:53:58;;;;;;;4.10;3.27;;;27.20;99.90;;;;;;5100024;28;20499;-62
2023/07/14 09:56:30;;;;;;;2.83;2.63;;;27.70;99.90;;;;;;5100101;28;20972;-62
2023/07/14 09:59:01;;;;;;;5.23;3.60;;;28.00;99.90;;;;;;5100208;28;20464;-62
2023/07/14 10:01:30;;;;;;;3.97;3.67;;;27.90;99.90;;;;;;5100274;28;20465;-62
2023/07/14 10:04:01;;;;;;;4.13;3.73;;;27.30;99.90;;;;;;5100171;28;20452;-62
2023/07/14 10:06:30;;;;;;;4.30;3.77;;;26.90;99.90;;;;;;5100218;28;20860;-62
2023/07/14 10:08:59;;;;;;;4.77;4.00;;;26.50;99.90;;;;;;5100340;28;20746;-63
2023/07/14 10:11:29;;;;;;;7.03;3.20;;;26.40;99.90;;;;;;5099995;28;20932;-62
2023/07/14 10:13:59;;;;;;;4.10;3.70;;;26.60;99.90;;;;;;5099833;28;20488;-62
2023/07/14 10:16:28;;;;;;;3.60;3.03;;;27.50;99.90;;;;;;5099755;28;20500;-62
2023/07/14 10:19:00;;;;;;;5.17;3.80;;;27.80;99.90;;;;;;5100070;28;20793;-62
2023/07/14 10:21:31;;;;;;;4.07;3.67;;;27.60;99.90;;;;;;5100160;28;20467;-62
2023/07/14 10:24:01;;;;;;;4.00;3.47;;;27.10;99.90;;;;;;5099862;28;20858;-62
2023/07/14 10:26:30;;;;;;;8.77;3.90;;;26.80;99.90;;;;;;5099558;28;20893;-62
2023/07/14 10:28:59;;;;;;;3.60;3.30;;;26.90;99.90;;;;;;5099645;28;20758;-61
2023/07/14 10:31:35;;;;;;;5.73;4.07;;;27.00;99.90;;;;;;5099551;28;20513;-62
2023/07/14 10:34:24;;;;;;;4.30;3.60;;;26.90;99.90;;;;;;5097950;28;20499;-61
2023/07/14 10:36:58;;;;;;;4.43;3.60;;;26.90;99.90;;;;;;5099403;28;20772;-61
2023/07/14 10:39:35;;;;;;;3.73;3.37;;;27.20;99.90;;;;;;5099747;28;20513;-62
2023/07/14 10:42:05;;;;;;;4.33;3.73;;;27.90;99.90;;;;;;5099085;28;20491;-60
2023/07/14 10:44:35;;;;;;;4.53;4.10;;;28.80;99.90;;;;;;5099445;28;20460;-61
2023/07/14 10:47:12;;;;;;;3.87;3.43;;;29.30;99.90;;;;;;5099557;28;20456;-62
2023/07/14 10:49:43;;;;;;;6.60;3.80;;;29.50;99.90;;;;;;5098839;28;20467;-62
2023/07/14 10:52:17;;;;;;;7.50;4.30;;;28.60;99.90;;;;;;5098816;28;20460;-62
2023/07/14 10:54:51;;;;;;;4.40;3.67;;;28.20;99.90;;;;;;5099148;28;20492;-61
2023/07/14 10:57:41;;;;;;;4.20;3.77;;;27.70;99.90;;;;;;5098738;28;20469;-62
2023/07/14 11:00:24;;;;;;;4.63;3.90;;;27.80;99.90;;;;;;5099034;28;20468;-62
2023/07/14 11:03:05;;;;;;;3.87;3.47;;;27.80;99.90;;;;;;5099278;28;20468;-60
2023/07/14 11:05:33;;;;;;;5.60;4.27;;;28.00;99.90;;;;;;5099030;28;20453;-62
2023/07/14 11:08:02;;;;;;;3.70;3.37;;;28.30;99.90;;;;;;5098639;28;20483;-62
2023/07/14 11:10:40;;;;;;;4.63;3.80;;;28.40;99.90;;;;;;5099026;28;20460;-62
2023/07/14 11:13:16;;;;;;;3.67;3.37;;;28.50;99.90;;;;;;5098832;28;20442;-61
2023/07/14 11:15:48;;;;;;;4.20;3.80;;;28.40;99.90;;;;;;5098454;28;20843;-61
2023/07/14 11:18:30;;;;;;;4.40;3.80;;;28.20;99.90;;;;;;5098806;28;20908;-62
2023/07/14 11:21:20;;;;;;;4.17;3.23;;;28.40;99.90;;;;;;5098043;28;20460;-62
2023/07/14 11:23:56;;;;;;;5.00;3.73;;;28.30;99.90;;;;;;5098614;28;20467;-61
2023/07/14 11:26:27;;;;;;;8.70;3.40;;;28.40;99.90;;;;;;5098037;28;20467;-62
2023/07/14 11:29:04;;;;;;;3.60;3.30;;;28.80;99.90;;;;;;5098525;28;20917;-62
2023/07/14 11:31:34;;;;;;;3.83;3.43;;;28.90;99.90;;;;;;5098786;28;20881;-61
2023/07/14 11:34:18;;;;;;;3.90;3.50;;;29.20;99.90;;;;;;5097114;28;20557;-61
2023/07/14 11:36:56;;;;;;;6.07;4.07;;;29.60;99.90;;;;;;5097917;28;20467;-61
2023/07/14 11:39:41;;;;;;;4.00;3.57;;;29.20;99.90;;;;;;5098332;28;20934;-61
2023/07/14 11:42:18;;;;;;;6.87;4.40;;;29.20;99.90;;;;;;5097905;28;20591;-61
2023/07/14 11:44:48;;;;;;;4.03;3.53;;;29.70;99.90;;;;;;5098593;28;21148;-62
2023/07/14 11:47:21;;;;;;;4.20;3.67;;;29.80;99.90;;;;;;5097874;28;20772;-61
2023/07/14 11:49:52;;;;;;;5.17;3.63;;;29.80;99.90;;;;;;5097787;28;20461;-63
2023/07/14 11:52:23;;;;;;;4.67;3.40;;;29.90;99.90;;;;;;5097836;28;20761;-61
2023/07/14 11:55:03;;;;;;;3.47;3.17;;;30.20;99.90;;;;;;5097847;28;20796;-62
2023/07/14 11:57:46;;;;;;;4.63;4.20;;;30.50;99.90;;;;;;5098317;28;20524;-61
2023/07/14 12:00:26;;;;;;;5.00;3.80;;;30.20;99.90;;;;;;5097268;28;20464;-62
2023/07/14 12:03:02;;;;;;;3.70;3.27;;;29.40;99.90;;;;;;5097912;28;20468;-62
2023/07/14 12:05:36;;;;;;;5.40;3.70;;;29.50;99.90;;;;;;5097905;28;20797;-62
2023/07/14 12:08:36;;;;;;;5.23;3.87;;;29.20;99.90;;;;;;5097616;28;20480;-61
2023/07/14 12:11:05;;;;;;;5.87;4.00;;;28.80;99.90;;;;;;5085939;28;20457;-62
2023/07/14 12:13:40;;;;;;;4.40;3.77;;;28.70;99.90;;;;;;5096250;28;20475;-63
2023/07/14 12:16:18;;;;;;;4.63;4.23;;;28.60;99.90;;;;;;5096195;28;20488;-63
2023/07/14 12:19:06;;;;;;;3.83;3.53;;;28.80;99.90;;;;;;5095607;28;20464;-62
2023/07/14 12:21:57;;;;;;;3.90;3.20;;;29.00;99.90;;;;;;5086424;28;20460;-62
2023/07/14 12:24:31;;;;;;;4.30;3.37;;;29.00;99.90;;;;;;5095955;28;20456;-61
2023/07/14 12:27:21;;;;;;;4.47;4.07;;;29.10;99.90;;;;;;5096430;28;20463;-62
2023/07/14 12:29:52;;;;;;;6.10;4.17;;;29.50;99.90;;;;;;5097307;28;20461;-62
2023/07/14 12:32:22;;;;;;;3.70;3.40;;;30.00;99.90;;;;;;5095675;28;20464;-62
2023/07/14 12:34:49;;;;;;;3.83;3.53;;;30.90;99.90;;;;;;5097215;28;20492;-61
2023/07/14 12:37:18;;;;;;;7.00;4.47;;;31.20;99.90;;;;;;5097315;28;20466;-62
2023/07/14 12:39:51;;;;;;;4.80;3.50;;;31.10;99.90;;;;;;5097437;28;20486;-62
2023/07/14 12:42:20;;;;;;;4.23;3.80;;;31.10;99.90;;;;;;5097091;28;20575;-62
2023/07/14 12:44:48;;;;;;;4.77;4.20;;;30.60;99.90;;;;;;5097147;28;20546;-61
2023/07/14 12:47:17;;;;;;;3.87;3.40;;;30.50;99.90;;;;;;5097236;28;20456;-62
2023/07/14 12:49:47;;;;;;;4.40;4.00;;;31.00;99.90;;;;;;5097049;28;20463;-62
2023/07/14 12:52:17;;;;;;;3.90;3.50;;;31.70;99.90;;;;;;5097525;28;20467;-62
2023/07/14 12:54:46;;;;;;;7.43;3.87;;;32.60;99.90;;;;;;5097531;28;20754;-62
2023/07/14 12:57:15;;;;;;;5.77;3.60;;;32.50;99.90;;;;;;5097781;28;20474;-62
2023/07/14 12:59:48;;;;;;;4.03;3.37;;;32.40;99.90;;;;;;5100820;28;20521;-62
2023/07/14 13:02:19;;;;;;;3.50;3.30;;;32.80;99.90;;;;;;5100811;28;20984;-62
2023/07/14 13:04:46;;;;;;;5.00;4.60;;;32.80;99.90;;;;;;5101170;28;20824;-61